createdAt,value
2022-11-02T00:00:22.537Z,1.10
2022-11-02T00:02:50.802Z,1.17
2022-11-02T00:05:24.838Z,1.55
2022-11-02T00:07:53.915Z,0.77
2022-11-02T00:10:23.205Z,1.00
2022-11-02T00:12:53.749Z,0.57
2022-11-02T00:15:22.131Z,1.10
2022-11-02T00:17:53.132Z,0.60
2022-11-02T00:20:22.454Z,1.23
2022-11-02T00:22:53.550Z,0.73
2022-11-02T00:25:24.396Z,0.60
2022-11-02T00:27:54.265Z,0.77
2022-11-02T00:30:22.796Z,0.70
2022-11-02T00:32:51.777Z,1.55
2022-11-02T00:35:19.881Z,0.80
2022-11-02T00:37:48.000Z,1.13
2022-11-02T00:40:16.171Z,0.75
2022-11-02T00:42:44.270Z,0.75
2022-11-02T00:45:13.871Z,0.77
2022-11-02T00:47:42.058Z,0.75
2022-11-02T00:50:11.297Z,0.45
2022-11-02T00:52:40.913Z,0.57
2022-11-02T00:55:11.060Z,0.75
2022-11-02T00:57:40.621Z,0.08
2022-11-02T01:00:10.610Z,0.95
2022-11-02T01:02:40.882Z,0.70
2022-11-02T01:05:13.085Z,0.47
2022-11-02T01:07:41.359Z,0.63
2022-11-02T01:10:11.456Z,1.35
2022-11-02T01:12:40.040Z,0.85
2022-11-02T01:15:10.358Z,1.35
2022-11-02T01:17:40.119Z,0.85
2022-11-02T01:20:09.847Z,0.85
2022-11-02T01:22:38.008Z,0.55
2022-11-02T01:25:06.532Z,1.23
2022-11-02T01:27:34.724Z,1.13
2022-11-02T01:30:02.906Z,1.73
2022-11-02T01:32:31.625Z,1.40
2022-11-02T01:35:02.771Z,1.45
2022-11-02T01:37:30.958Z,0.85
2022-11-02T01:39:59.141Z,1.10
2022-11-02T01:42:29.108Z,0.85
2022-11-02T01:44:57.349Z,0.75
2022-11-02T01:47:29.408Z,0.55
2022-11-02T01:50:03.958Z,0.95
2022-11-02T01:52:35.504Z,1.00
2022-11-02T01:55:10.878Z,0.65
2022-11-02T01:57:40.813Z,1.25
2022-11-02T02:00:11.722Z,0.38
2022-11-02T02:02:44.416Z,0.70
2022-11-02T02:05:15.601Z,0.70
2022-11-02T02:07:44.069Z,1.35
2022-11-02T02:10:13.389Z,0.85
2022-11-02T02:12:43.854Z,0.98
2022-11-02T02:15:13.352Z,1.10
2022-11-02T02:17:48.087Z,0.20
2022-11-02T02:20:29.888Z,1.67
2022-11-02T02:23:18.072Z,0.93
2022-11-02T02:26:04.063Z,0.73
2022-11-02T02:28:39.068Z,0.50
2022-11-02T02:31:13.859Z,0.75
2022-11-02T02:33:47.504Z,0.45
2022-11-02T02:36:21.435Z,0.93
2022-11-02T02:38:55.582Z,0.55
2022-11-02T02:41:32.159Z,0.93
2022-11-02T02:44:04.266Z,0.43
2022-11-02T02:46:40.536Z,1.10
2022-11-02T02:49:14.830Z,1.38
2022-11-02T02:51:44.321Z,0.98
2022-11-02T02:54:16.250Z,0.65
2022-11-02T02:56:48.200Z,0.60
2022-11-02T02:59:23.634Z,1.42
2022-11-02T03:01:52.253Z,1.02
2022-11-02T03:04:20.399Z,1.00
2022-11-02T03:06:52.930Z,1.05
2022-11-02T03:09:27.742Z,0.85
2022-11-02T03:12:05.945Z,0.52
2022-11-02T03:14:41.106Z,0.60
2022-11-02T03:17:17.533Z,0.98
2022-11-02T03:19:54.202Z,1.05
2022-11-02T03:22:33.851Z,1.30
2022-11-02T03:25:10.732Z,1.48
2022-11-02T03:27:45.257Z,0.93
2022-11-02T03:30:17.847Z,0.80
2022-11-02T03:32:54.141Z,1.55
2022-11-02T03:35:30.255Z,1.55
2022-11-02T03:38:04.455Z,1.83
2022-11-02T03:40:36.609Z,0.73
2022-11-02T03:43:06.820Z,0.77
2022-11-02T03:45:40.610Z,0.93
2022-11-02T03:48:12.681Z,0.73
2022-11-02T03:50:45.662Z,0.98
2022-11-02T03:53:18.390Z,0.20
2022-11-02T03:55:51.391Z,1.67
2022-11-02T03:58:19.579Z,0.60
2022-11-02T04:00:54.035Z,1.40
2022-11-02T04:03:24.501Z,0.50
2022-11-02T04:05:52.855Z,0.80
2022-11-02T04:08:29.939Z,1.60
2022-11-02T04:11:15.207Z,0.77
2022-11-02T04:14:00.488Z,0.50
2022-11-02T04:16:30.257Z,0.93
2022-11-02T04:19:15.572Z,0.75
2022-11-02T04:22:04.080Z,1.27
2022-11-02T04:24:49.582Z,1.23
2022-11-02T04:27:20.988Z,0.63
2022-11-02T04:29:49.723Z,0.65
2022-11-02T04:32:39.983Z,1.02
2022-11-02T04:35:08.450Z,1.70
2022-11-02T04:37:57.853Z,1.33
2022-11-02T04:40:26.088Z,1.13
2022-11-02T04:42:54.200Z,1.00
2022-11-02T04:45:22.272Z,0.88
2022-11-02T04:47:51.708Z,1.00
2022-11-02T04:50:20.126Z,1.20
2022-11-02T04:52:48.228Z,1.38
2022-11-02T04:55:16.450Z,0.65
2022-11-02T04:57:46.576Z,0.50
2022-11-02T05:00:16.028Z,0.47
2022-11-02T05:02:44.254Z,0.98
2022-11-02T05:05:13.923Z,0.60
2022-11-02T05:07:41.979Z,0.28
2022-11-02T05:10:10.340Z,0.65
2022-11-02T05:12:38.540Z,0.77
2022-11-02T05:15:07.553Z,0.90
2022-11-02T05:17:35.811Z,1.33
2022-11-02T05:20:04.894Z,1.35
2022-11-02T05:22:34.343Z,0.82
2022-11-02T05:25:02.478Z,2.25
2022-11-02T05:27:30.525Z,1.30
2022-11-02T05:29:59.991Z,1.05
2022-11-02T05:32:28.996Z,0.73
2022-11-02T05:34:57.091Z,0.82
2022-11-02T05:37:25.644Z,0.80
2022-11-02T05:39:55.114Z,0.90
2022-11-02T05:42:23.142Z,1.23
2022-11-02T05:44:51.180Z,0.43
2022-11-02T05:47:19.356Z,0.50
2022-11-02T05:49:47.438Z,0.57
2022-11-02T05:52:15.494Z,0.82
2022-11-02T05:54:43.682Z,1.58
2022-11-02T05:57:13.759Z,0.82
2022-11-02T05:59:43.908Z,1.08
2022-11-02T06:02:14.857Z,1.55
2022-11-02T06:04:42.880Z,1.27
2022-11-02T06:07:10.999Z,1.33
2022-11-02T06:09:39.421Z,1.35
2022-11-02T06:12:08.758Z,1.25
2022-11-02T06:14:38.221Z,0.50
2022-11-02T06:17:06.427Z,1.15
2022-11-02T06:19:34.429Z,1.33
2022-11-02T06:22:02.656Z,0.70
2022-11-02T06:24:30.694Z,1.95
2022-11-02T06:26:58.736Z,1.85
2022-11-02T06:29:26.728Z,0.95
2022-11-02T06:31:56.165Z,2.10
2022-11-02T06:34:24.394Z,0.55
2022-11-02T06:36:52.502Z,0.65
2022-11-02T06:39:20.537Z,2.03
2022-11-02T06:41:48.577Z,0.28
2022-11-02T06:44:16.694Z,1.42
2022-11-02T06:46:44.765Z,1.48
2022-11-02T06:49:14.220Z,1.92
2022-11-02T06:51:42.209Z,1.85
2022-11-02T06:54:10.235Z,1.27
2022-11-02T06:56:38.278Z,0.95
2022-11-02T06:59:06.494Z,1.23
2022-11-02T07:01:35.403Z,1.23
2022-11-02T07:04:03.953Z,0.85
2022-11-02T07:06:33.538Z,0.63
2022-11-02T07:09:01.633Z,0.90
2022-11-02T07:11:29.671Z,0.40
2022-11-02T07:13:57.749Z,2.40
2022-11-02T07:16:26.332Z,2.15
2022-11-02T07:18:54.494Z,0.80
2022-11-02T07:21:22.552Z,0.40
2022-11-02T07:23:51.991Z,1.90
2022-11-02T07:26:20.045Z,0.85
2022-11-02T07:28:48.209Z,1.75
2022-11-02T07:31:16.221Z,1.15
2022-11-02T07:33:44.366Z,0.60
2022-11-02T07:36:12.372Z,1.52
2022-11-02T07:38:40.822Z,0.77
2022-11-02T07:41:10.427Z,1.40
2022-11-02T07:43:41.400Z,0.73
2022-11-02T07:46:12.445Z,1.35
2022-11-02T07:48:40.478Z,0.70
2022-11-02T07:51:11.158Z,1.15
2022-11-02T07:53:39.857Z,1.17
2022-11-02T07:56:09.821Z,0.30
2022-11-02T07:58:38.119Z,1.27
2022-11-02T08:01:06.332Z,1.08
2022-11-02T08:03:34.492Z,0.63
2022-11-02T08:06:03.514Z,0.75
2022-11-02T08:08:31.660Z,2.47
2022-11-02T08:11:06.042Z,1.63
2022-11-02T08:13:36.142Z,0.30
2022-11-02T08:16:04.229Z,1.52
2022-11-02T08:18:32.872Z,1.83
2022-11-02T08:21:01.647Z,0.95
2022-11-02T08:23:29.730Z,1.60
2022-11-02T08:26:00.352Z,0.85
2022-11-02T08:28:32.261Z,0.75
2022-11-02T08:31:01.684Z,1.02
2022-11-02T08:33:29.772Z,1.77
2022-11-02T08:36:03.499Z,0.95
2022-11-02T08:38:31.571Z,1.33
2022-11-02T08:40:59.685Z,1.60
2022-11-02T08:43:27.837Z,1.02
2022-11-02T08:46:16.137Z,1.77
2022-11-02T08:48:46.265Z,1.45
2022-11-02T08:51:14.335Z,1.60
2022-11-02T08:53:47.099Z,3.33
2022-11-02T08:56:18.439Z,3.15
2022-11-02T08:58:46.499Z,3.53
2022-11-02T09:01:14.847Z,1.83
2022-11-02T09:03:43.162Z,3.72
2022-11-02T09:06:12.604Z,2.08
2022-11-02T09:08:40.741Z,2.13
2022-11-02T09:11:09.205Z,3.38
2022-11-02T09:13:38.923Z,4.13
2022-11-02T09:16:07.631Z,2.47
2022-11-02T09:18:35.705Z,3.20
2022-11-02T09:21:04.311Z,2.63
2022-11-02T09:23:34.145Z,3.25
2022-11-02T09:26:02.248Z,1.52
2022-11-02T09:28:31.083Z,2.92
2022-11-02T09:30:59.262Z,2.88
2022-11-02T09:33:29.791Z,2.65
2022-11-02T09:36:02.483Z,2.30
2022-11-02T09:38:30.790Z,3.35
2022-11-02T09:41:13.025Z,3.40
2022-11-02T09:43:51.967Z,2.30
2022-11-02T09:46:25.286Z,2.78
2022-11-02T09:48:56.831Z,2.10
2022-11-02T09:51:27.816Z,1.75
2022-11-02T09:54:03.265Z,1.60
2022-11-02T09:56:34.582Z,2.90
2022-11-02T09:59:06.862Z,3.38
2022-11-02T10:01:55.732Z,3.55
2022-11-02T10:04:52.489Z,2.20
2022-11-02T10:07:30.741Z,3.58
2022-11-02T10:10:04.752Z,2.15
2022-11-02T10:12:47.261Z,1.25
2022-11-02T10:15:19.736Z,2.15
2022-11-02T10:17:53.716Z,1.42
2022-11-02T10:20:27.637Z,1.65
2022-11-02T10:23:00.673Z,1.45
2022-11-02T10:25:28.764Z,1.55
2022-11-02T10:28:04.639Z,1.05
2022-11-02T10:30:33.701Z,1.33
2022-11-02T10:33:01.998Z,1.45
2022-11-02T10:36:16.401Z,1.15
2022-11-02T10:38:45.903Z,0.73
2022-11-02T10:41:31.080Z,0.77
2022-11-02T10:44:20.669Z,1.55
2022-11-02T10:46:59.767Z,0.90
2022-11-02T10:49:46.628Z,1.33
2022-11-02T10:52:17.382Z,1.70
2022-11-02T10:54:45.560Z,0.63
2022-11-02T10:57:15.490Z,1.27
2022-11-02T10:59:44.890Z,2.00
2022-11-02T11:02:14.668Z,1.27
2022-11-02T11:04:43.776Z,0.77
2022-11-02T11:07:18.001Z,0.82
2022-11-02T11:09:54.038Z,0.50
2022-11-02T11:12:27.332Z,1.60
2022-11-02T11:20:37.586Z,1.63
2022-11-02T11:23:16.402Z,1.17
2022-11-02T11:25:54.359Z,0.82
2022-11-02T11:28:25.464Z,0.47
2022-11-02T11:31:07.084Z,0.80
2022-11-02T11:33:44.401Z,0.85
2022-11-02T11:36:21.538Z,0.82
2022-11-02T11:38:51.233Z,1.10
2022-11-02T11:41:19.866Z,0.85
2022-11-02T11:43:49.933Z,0.75
2022-11-02T11:46:20.024Z,0.65
2022-11-02T11:48:51.437Z,0.40
2022-11-02T11:51:38.737Z,0.32
2022-11-02T11:54:22.199Z,0.75
2022-11-02T11:56:52.008Z,0.45
2022-11-02T11:59:23.097Z,0.57
2022-11-02T12:01:56.088Z,0.55
2022-11-02T12:04:33.198Z,0.43
2022-11-02T12:07:40.275Z,0.80
2022-11-02T12:10:16.469Z,0.38
2022-11-02T12:12:56.167Z,0.63
2022-11-02T12:15:40.000Z,0.32
2022-11-02T12:18:40.601Z,0.55
2022-11-02T12:21:21.983Z,0.40
2022-11-02T12:24:17.923Z,0.55
2022-11-02T12:26:56.946Z,0.88
2022-11-02T12:29:44.180Z,0.50
2022-11-02T12:32:24.509Z,0.28
2022-11-02T12:35:27.903Z,0.20
2022-11-02T12:38:14.781Z,0.35
2022-11-02T12:40:56.166Z,0.40
2022-11-02T12:43:39.245Z,0.10
2022-11-02T12:46:14.580Z,0.38
2022-11-02T12:48:55.551Z,0.73
2022-11-02T12:51:29.277Z,0.75
2022-11-02T12:53:59.775Z,0.40
2022-11-02T12:56:33.703Z,0.00
2022-11-02T12:59:02.193Z,0.17
2022-11-02T13:01:36.729Z,0.00
2022-11-02T13:04:14.614Z,0.43
2022-11-02T13:06:46.757Z,0.22
2022-11-02T13:09:22.710Z,0.08
2022-11-02T13:11:59.528Z,0.00
2022-11-02T13:14:30.854Z,0.60
2022-11-02T13:17:04.250Z,0.20
2022-11-02T13:19:38.957Z,0.20
2022-11-02T13:22:12.481Z,0.20
2022-11-02T13:24:47.673Z,0.20
2022-11-02T13:27:36.862Z,0.10
2022-11-02T13:30:14.152Z,0.90
2022-11-02T13:32:45.632Z,0.08
2022-11-02T13:35:20.047Z,0.40
2022-11-02T13:37:54.809Z,0.05
2022-11-02T13:40:26.122Z,0.10
2022-11-02T13:43:24.209Z,0.30
2022-11-02T13:46:22.980Z,0.20
2022-11-02T13:48:59.526Z,0.30
2022-11-02T13:51:35.170Z,1.13
2022-11-02T13:54:17.706Z,0.30
2022-11-02T13:56:47.065Z,0.28
2022-11-02T13:59:22.821Z,0.30
2022-11-02T14:02:01.200Z,0.28
2022-11-02T14:04:37.925Z,0.82
2022-11-02T14:07:09.393Z,0.25
2022-11-02T14:09:42.591Z,0.10
2022-11-02T14:12:44.029Z,0.00
2022-11-02T14:15:49.035Z,0.20
2022-11-02T14:18:33.434Z,0.32
2022-11-02T14:21:39.950Z,0.88
2022-11-02T14:24:41.491Z,0.50
2022-11-02T14:27:32.033Z,0.00
2022-11-02T14:30:00.423Z,0.25
2022-11-02T14:32:43.544Z,0.10
2022-11-02T14:35:34.778Z,0.93
2022-11-02T14:38:30.165Z,0.30
2022-11-02T14:41:09.413Z,0.22
2022-11-02T14:44:05.269Z,0.70
2022-11-02T14:46:47.456Z,0.00
2022-11-02T14:49:22.020Z,0.10
2022-11-02T14:52:04.188Z,0.03
2022-11-02T14:54:35.406Z,0.28
2022-11-02T14:57:22.524Z,0.10
2022-11-02T14:59:55.544Z,0.00
2022-11-02T15:02:27.923Z,0.30
2022-11-02T15:05:06.298Z,0.17
2022-11-02T15:07:37.647Z,0.10
2022-11-02T15:10:28.590Z,0.25
2022-11-02T15:13:33.767Z,0.25
2022-11-02T15:16:24.340Z,0.00
2022-11-02T15:18:52.676Z,0.22
2022-11-02T15:21:28.920Z,0.20
2022-11-02T15:24:17.981Z,0.00
2022-11-02T15:26:50.313Z,0.28
2022-11-02T15:29:36.062Z,0.55
2022-11-02T15:32:14.310Z,0.22
2022-11-02T15:34:48.641Z,0.17
2022-11-02T15:37:21.376Z,0.03
2022-11-02T15:39:50.605Z,0.47
2022-11-02T15:42:28.708Z,0.15
2022-11-02T15:45:48.984Z,0.15
2022-11-02T15:48:39.061Z,0.00
2022-11-02T15:51:17.369Z,0.40
2022-11-02T15:54:00.157Z,0.13
2022-11-02T15:56:40.411Z,0.70
2022-11-02T15:59:47.233Z,0.20
2022-11-02T16:02:27.557Z,0.00
2022-11-02T16:04:58.315Z,0.22
2022-11-02T16:07:33.247Z,0.00
2022-11-02T16:10:24.256Z,0.10
2022-11-02T16:13:11.770Z,0.17
2022-11-02T16:15:42.314Z,2.70
2022-11-02T16:18:25.952Z,1.27
2022-11-02T16:20:57.097Z,0.47
2022-11-02T16:23:26.944Z,0.98
2022-11-02T16:25:57.441Z,0.20
2022-11-02T16:28:26.932Z,0.90
2022-11-02T16:31:08.073Z,2.28
2022-11-02T16:33:42.014Z,1.23
2022-11-02T16:36:11.808Z,1.10
2022-11-02T16:38:46.153Z,0.93
2022-11-02T16:41:17.247Z,0.82
2022-11-02T16:43:46.798Z,1.65
2022-11-02T16:46:17.991Z,1.95
2022-11-02T16:49:16.402Z,2.22
2022-11-02T16:51:53.868Z,1.65
2022-11-02T16:54:40.514Z,1.65
2022-11-02T16:57:16.397Z,1.15
2022-11-02T16:59:51.686Z,0.65
2022-11-02T17:02:20.616Z,1.02
2022-11-02T17:07:23.454Z,0.80
2022-11-02T17:09:54.089Z,1.10
2022-11-02T17:12:30.089Z,0.43
2022-11-02T17:14:58.906Z,0.60
2022-11-02T17:17:38.187Z,0.90
2022-11-02T17:20:26.427Z,0.35
2022-11-02T17:22:59.757Z,0.40
2022-11-02T17:25:30.058Z,0.50
2022-11-02T17:27:59.449Z,0.20
2022-11-02T17:30:43.525Z,0.20
2022-11-02T17:33:21.773Z,0.25
2022-11-02T17:35:52.682Z,0.38
2022-11-02T17:38:23.897Z,1.10
2022-11-02T17:40:52.479Z,0.88
2022-11-02T17:43:20.541Z,1.00
2022-11-02T17:45:55.220Z,1.15
2022-11-02T17:48:24.478Z,1.15
2022-11-02T17:50:56.080Z,1.60
2022-11-02T17:53:25.136Z,2.60
2022-11-02T17:55:54.469Z,1.30
2022-11-02T17:58:22.513Z,0.90
2022-11-02T18:00:53.794Z,1.92
2022-11-02T18:03:25.440Z,2.50
2022-11-02T18:05:59.787Z,1.90
2022-11-02T18:08:28.438Z,2.45
2022-11-02T18:10:57.153Z,3.10
2022-11-02T18:13:25.644Z,3.03
2022-11-02T18:15:53.763Z,4.25
2022-11-02T18:18:21.997Z,2.55
2022-11-02T18:20:50.133Z,1.35
2022-11-02T18:23:20.448Z,1.95
2022-11-02T18:25:48.797Z,1.35
2022-11-02T18:28:17.033Z,1.65
2022-11-02T18:30:45.675Z,1.73
2022-11-02T18:33:14.462Z,1.42
2022-11-02T18:35:44.300Z,1.35
2022-11-02T18:38:13.036Z,1.23
2022-11-02T18:40:42.529Z,0.90
2022-11-02T18:43:10.732Z,1.55
2022-11-02T18:45:38.811Z,0.45
2022-11-02T18:48:07.909Z,0.93
2022-11-02T18:50:37.504Z,1.58
2022-11-02T18:53:05.683Z,0.75
2022-11-02T18:55:33.892Z,1.42
2022-11-02T18:58:03.707Z,0.88
2022-11-02T19:00:32.043Z,1.67
2022-11-02T19:03:00.169Z,0.57
2022-11-02T19:05:46.084Z,0.85
2022-11-02T19:08:31.610Z,1.17
2022-11-02T19:10:59.846Z,1.50
2022-11-02T19:13:29.398Z,1.45
2022-11-02T19:15:57.488Z,2.00
2022-11-02T19:18:25.639Z,1.95
2022-11-02T19:20:53.735Z,1.80
2022-11-02T19:23:21.913Z,3.42
2022-11-02T19:25:52.763Z,2.50
2022-11-02T19:28:21.196Z,2.15
2022-11-02T19:30:50.919Z,1.77
2022-11-02T19:33:19.054Z,1.60
2022-11-02T19:35:56.150Z,2.95
2022-11-02T19:38:24.645Z,4.43
2022-11-02T19:41:01.739Z,2.13
2022-11-02T19:43:30.039Z,1.60
2022-11-02T19:46:03.556Z,0.55
2022-11-02T19:48:32.539Z,0.28
2022-11-02T19:51:13.463Z,0.40
2022-11-02T19:53:45.838Z,0.95
2022-11-02T19:56:15.336Z,0.57
2022-11-02T19:58:45.582Z,0.98
2022-11-02T20:01:17.647Z,0.90
2022-11-02T20:03:47.277Z,0.50
2022-11-02T20:06:18.110Z,1.13
2022-11-02T20:08:49.578Z,1.55
2022-11-02T20:11:18.124Z,2.35
2022-11-02T20:13:47.306Z,1.45
2022-11-02T20:16:18.297Z,0.75
2022-11-02T20:18:48.632Z,2.00
2022-11-02T20:21:18.513Z,0.70
2022-11-02T20:23:47.578Z,0.60
2022-11-02T20:26:18.598Z,0.90
2022-11-02T20:28:48.422Z,1.98
2022-11-02T20:31:19.758Z,0.35
2022-11-02T20:33:48.748Z,0.80
2022-11-02T20:36:17.451Z,0.88
2022-11-02T20:38:49.293Z,1.50
2022-11-02T20:41:19.175Z,0.20
2022-11-02T20:43:49.048Z,0.68
2022-11-02T20:49:21.074Z,1.65
2022-11-02T20:51:51.205Z,0.47
2022-11-02T20:54:20.083Z,0.70
2022-11-02T20:56:48.407Z,0.55
2022-11-02T20:59:16.849Z,1.75
2022-11-02T21:01:46.702Z,0.30
2022-11-02T21:04:20.351Z,0.60
2022-11-02T21:06:49.558Z,0.25
2022-11-02T21:09:17.866Z,0.57
2022-11-02T21:12:03.147Z,1.23
2022-11-02T21:14:31.228Z,0.60
2022-11-02T21:17:02.550Z,1.10
2022-11-02T21:19:30.730Z,1.10
2022-11-02T21:22:00.167Z,2.28
2022-11-02T21:24:28.895Z,0.82
2022-11-02T21:26:57.343Z,0.30
2022-11-02T21:29:25.499Z,0.68
2022-11-02T21:31:53.504Z,0.55
2022-11-02T21:34:23.059Z,0.38
2022-11-02T21:36:51.205Z,0.80
2022-11-02T21:39:19.325Z,0.30
2022-11-02T21:41:47.461Z,0.13
2022-11-02T21:44:15.559Z,0.30
2022-11-02T21:46:43.679Z,0.80
2022-11-02T21:49:12.980Z,0.47
2022-11-02T21:51:42.986Z,1.63
2022-11-02T21:54:11.636Z,0.67
2022-11-02T21:56:39.894Z,0.90
2022-11-02T21:59:09.552Z,1.08
2022-11-02T22:01:47.904Z,0.63
2022-11-02T22:04:19.568Z,1.10
2022-11-02T22:06:49.386Z,0.77
2022-11-02T22:09:17.678Z,0.45
2022-11-02T22:11:46.100Z,0.30
2022-11-02T22:14:13.867Z,0.68
2022-11-02T22:16:44.852Z,0.70
2022-11-02T22:19:15.301Z,0.52
2022-11-02T22:21:45.307Z,1.05
2022-11-02T22:24:14.844Z,0.22
2022-11-02T22:26:42.930Z,0.63
2022-11-02T22:29:11.145Z,0.95
2022-11-02T22:31:41.867Z,0.82
2022-11-02T22:34:11.635Z,0.70
2022-11-02T22:36:41.564Z,0.90
2022-11-02T22:39:11.994Z,0.90
2022-11-02T22:41:43.090Z,1.10
2022-11-02T22:44:12.773Z,0.73
2022-11-02T22:46:43.732Z,0.35
2022-11-02T22:49:13.492Z,0.40
2022-11-02T22:51:43.673Z,1.17
2022-11-02T22:54:15.515Z,0.65
2022-11-02T22:56:46.042Z,0.57
2022-11-02T22:59:14.642Z,0.32
2022-11-02T23:01:43.207Z,0.43
2022-11-02T23:04:12.896Z,1.33
2022-11-02T23:06:41.182Z,1.08
2022-11-02T23:09:11.374Z,1.25
2022-11-02T23:11:38.802Z,0.82
2022-11-02T23:14:10.534Z,1.08
2022-11-02T23:16:40.366Z,0.88
2022-11-02T23:19:28.543Z,0.35
2022-11-02T23:22:15.851Z,0.57
2022-11-02T23:25:03.151Z,0.20
2022-11-02T23:27:31.968Z,0.90
2022-11-02T23:30:30.420Z,0.95
2022-11-02T23:32:58.531Z,0.75
2022-11-02T23:35:43.992Z,0.60
2022-11-02T23:38:12.462Z,0.95
2022-11-02T23:40:40.534Z,1.27
2022-11-02T23:43:08.742Z,0.65
2022-11-02T23:45:38.475Z,1.30
2022-11-02T23:48:07.560Z,0.63
2022-11-02T23:50:54.033Z,0.35
2022-11-02T23:53:41.267Z,0.75
2022-11-02T23:56:33.600Z,0.55
2022-11-02T23:59:07.929Z,0.83
